createdAt,value
2019-01-06T00:01:27.458Z,9.00
2019-01-06T00:04:11.532Z,8.67
2019-01-06T00:06:59.610Z,8.20
2019-01-06T00:09:37.562Z,8.13
2019-01-06T00:12:18.815Z,8.43
2019-01-06T00:15:08.731Z,8.70
2019-01-06T00:17:57.102Z,8.50
2019-01-06T00:20:29.137Z,8.67
2019-01-06T00:23:10.162Z,9.10
2019-01-06T00:25:44.829Z,9.13
2019-01-06T00:28:32.953Z,9.23
2019-01-06T00:31:07.634Z,9.47
2019-01-06T00:33:42.626Z,9.60
2019-01-06T00:36:17.394Z,9.37
2019-01-06T00:38:52.281Z,8.73
2019-01-06T00:41:39.553Z,8.20
2019-01-06T00:44:14.382Z,8.90
2019-01-06T00:46:54.966Z,10.00
2019-01-06T00:49:39.179Z,9.27
2019-01-06T00:52:27.918Z,9.07
2019-01-06T00:55:18.211Z,8.77
2019-01-06T00:57:55.860Z,9.27
2019-01-06T01:00:27.975Z,9.87
2019-01-06T01:03:00.026Z,8.87
2019-01-06T01:05:32.042Z,9.53
2019-01-06T01:08:04.070Z,8.53
2019-01-06T01:10:39.187Z,8.30
2019-01-06T01:13:11.206Z,7.57
2019-01-06T01:15:43.228Z,7.70
2019-01-06T01:18:15.246Z,7.97
2019-01-06T01:20:50.239Z,8.40
2019-01-06T01:23:22.226Z,7.23
2019-01-06T01:25:54.293Z,7.40
2019-01-06T01:28:44.392Z,6.30
2019-01-06T01:31:19.074Z,6.93
2019-01-06T01:33:51.078Z,6.77
2019-01-06T01:36:32.730Z,7.27
2019-01-06T01:39:07.523Z,7.67
2019-01-06T01:41:48.361Z,7.73
2019-01-06T01:44:37.658Z,8.43
2019-01-06T01:47:12.616Z,7.23
2019-01-06T01:49:44.656Z,8.27
2019-01-06T01:52:33.028Z,8.17
2019-01-06T01:55:21.911Z,8.00
2019-01-06T01:58:05.926Z,8.30
2019-01-06T02:00:37.975Z,8.47
2019-01-06T02:03:10.046Z,7.63
2019-01-06T02:05:45.026Z,9.23
2019-01-06T02:08:17.047Z,9.53
2019-01-06T02:10:49.360Z,11.00
2019-01-06T02:13:33.535Z,10.30
2019-01-06T02:16:17.780Z,9.97
2019-01-06T02:18:55.846Z,10.97
2019-01-06T02:21:27.879Z,10.80
2019-01-06T02:24:03.031Z,10.20
2019-01-06T02:26:53.079Z,10.43
2019-01-06T02:29:31.326Z,10.10
2019-01-06T02:32:06.428Z,10.03
2019-01-06T02:34:54.818Z,10.50
2019-01-06T02:37:38.801Z,10.13
2019-01-06T02:40:13.626Z,10.67
2019-01-06T02:43:00.637Z,10.63
2019-01-06T02:45:38.693Z,9.00
2019-01-06T02:48:27.080Z,8.20
2019-01-06T02:51:11.286Z,7.03
2019-01-06T02:53:59.782Z,7.83
2019-01-06T02:56:49.729Z,8.00
2019-01-06T02:59:37.156Z,8.00
2019-01-06T03:02:09.172Z,8.47
2019-01-06T03:04:44.240Z,8.07
2019-01-06T03:07:19.058Z,7.73
2019-01-06T03:10:06.039Z,8.07
2019-01-06T03:12:38.068Z,7.93
2019-01-06T03:15:10.184Z,8.93
2019-01-06T03:17:58.245Z,8.37
2019-01-06T03:20:39.525Z,8.07
2019-01-06T03:23:23.090Z,8.17
2019-01-06T03:25:55.132Z,8.23
2019-01-06T03:28:45.400Z,8.47
2019-01-06T03:31:29.599Z,8.60
2019-01-06T03:34:17.262Z,9.47
2019-01-06T03:36:55.235Z,8.07
2019-01-06T03:39:42.835Z,8.67
2019-01-06T03:42:26.754Z,7.93
2019-01-06T03:45:04.434Z,7.43
2019-01-06T03:47:39.684Z,8.87
2019-01-06T03:50:27.298Z,9.40
2019-01-06T03:53:15.722Z,8.53
2019-01-06T03:55:53.266Z,8.33
2019-01-06T03:58:31.274Z,8.97
2019-01-06T04:01:03.405Z,8.40
2019-01-06T04:03:53.636Z,8.50
2019-01-06T04:06:37.803Z,9.40
2019-01-06T04:09:12.468Z,8.80
2019-01-06T04:12:02.973Z,9.43
2019-01-06T04:14:38.081Z,10.00
2019-01-06T04:17:26.225Z,9.37
2019-01-06T04:20:13.758Z,11.87
2019-01-06T04:23:01.038Z,12.37
2019-01-06T04:25:33.053Z,13.10
2019-01-06T04:28:17.386Z,12.33
2019-01-06T04:30:55.330Z,12.97
2019-01-06T04:33:33.462Z,13.07
2019-01-06T04:36:17.271Z,13.93
2019-01-06T04:39:07.286Z,12.87
2019-01-06T04:41:42.035Z,12.27
2019-01-06T04:44:20.696Z,11.77
2019-01-06T04:46:58.705Z,12.07
2019-01-06T04:49:39.698Z,11.47
2019-01-06T04:52:23.656Z,12.37
2019-01-06T04:55:11.722Z,13.80
2019-01-06T04:57:43.751Z,12.47
2019-01-06T05:00:21.732Z,13.57
2019-01-06T05:03:11.832Z,13.53
2019-01-06T05:05:49.658Z,13.27
2019-01-06T05:08:21.695Z,13.63
2019-01-06T05:10:56.126Z,13.73
2019-01-06T05:13:28.163Z,13.77
2019-01-06T05:16:06.204Z,13.10
2019-01-06T05:18:41.345Z,12.73
2019-01-06T05:21:28.375Z,12.63
2019-01-06T05:24:12.128Z,13.07
2019-01-06T05:26:59.347Z,13.33
2019-01-06T05:29:31.650Z,13.97
2019-01-06T05:32:06.675Z,13.10
2019-01-06T05:34:44.323Z,13.80
2019-01-06T05:37:32.780Z,14.90
2019-01-06T05:40:07.760Z,13.10
2019-01-06T05:42:39.886Z,12.83
2019-01-06T05:45:11.929Z,12.77
2019-01-06T05:47:58.944Z,13.90
2019-01-06T05:50:30.987Z,13.30
2019-01-06T05:53:05.945Z,13.60
2019-01-06T05:55:46.721Z,14.67
2019-01-06T05:58:18.749Z,13.97
2019-01-06T06:00:59.440Z,14.63
2019-01-06T06:03:40.685Z,15.50
2019-01-06T06:06:24.158Z,15.40
2019-01-06T06:09:12.491Z,14.10
2019-01-06T06:11:44.521Z,13.93
2019-01-06T06:14:22.563Z,13.83
2019-01-06T06:16:54.590Z,13.47
2019-01-06T06:19:35.121Z,14.73
2019-01-06T06:22:10.042Z,15.67
2019-01-06T06:24:42.089Z,15.77
2019-01-06T06:27:23.497Z,17.10
2019-01-06T06:30:04.547Z,14.70
2019-01-06T06:32:54.598Z,14.43
2019-01-06T06:35:32.602Z,14.47
2019-01-06T06:38:20.975Z,16.43
2019-01-06T06:40:52.999Z,16.27
2019-01-06T06:43:40.258Z,14.77
2019-01-06T06:46:18.212Z,14.70
2019-01-06T06:48:54.763Z,14.70
2019-01-06T06:51:32.745Z,15.13
2019-01-06T06:54:10.598Z,14.67
2019-01-06T06:56:48.809Z,15.47
2019-01-06T06:59:32.679Z,14.63
2019-01-06T07:02:35.426Z,13.20
2019-01-06T07:05:20.330Z,14.17
2019-01-06T07:08:10.405Z,14.90
2019-01-06T07:10:42.424Z,14.37
2019-01-06T07:13:30.777Z,12.53
2019-01-06T07:16:02.803Z,13.57
2019-01-06T07:18:40.535Z,13.57
2019-01-06T07:21:15.771Z,13.53
2019-01-06T07:23:47.809Z,12.83
2019-01-06T07:26:22.952Z,12.37
2019-01-06T07:29:11.403Z,15.33
2019-01-06T07:32:01.659Z,13.97
2019-01-06T07:34:36.272Z,12.93
2019-01-06T07:37:16.886Z,12.77
2019-01-06T07:39:48.925Z,13.83
2019-01-06T07:42:32.823Z,13.90
2019-01-06T07:45:04.866Z,14.47
2019-01-06T07:47:36.892Z,12.13
2019-01-06T07:50:14.639Z,11.83
2019-01-06T07:52:55.568Z,12.13
2019-01-06T07:55:30.516Z,12.13
2019-01-06T07:58:02.552Z,13.03
2019-01-06T08:00:37.513Z,13.07
2019-01-06T08:03:09.559Z,12.23
2019-01-06T08:05:57.946Z,12.03
2019-01-06T08:08:29.979Z,12.73
2019-01-06T08:11:04.929Z,10.70
2019-01-06T08:13:39.873Z,11.07
2019-01-06T08:16:28.257Z,11.70
2019-01-06T08:19:05.992Z,11.57
2019-01-06T08:21:47.089Z,10.97
2019-01-06T08:24:25.095Z,10.33
2019-01-06T08:27:12.852Z,10.90
2019-01-06T08:29:47.854Z,11.43
2019-01-06T08:32:22.834Z,10.13
2019-01-06T08:34:54.887Z,10.67
2019-01-06T08:37:32.733Z,11.10
2019-01-06T08:40:13.523Z,11.23
2019-01-06T08:43:01.699Z,10.97
2019-01-06T08:45:34.365Z,11.40
2019-01-06T08:48:22.739Z,10.73
2019-01-06T08:50:57.462Z,11.17
2019-01-06T08:53:35.159Z,10.67
2019-01-06T08:56:10.119Z,10.57
2019-01-06T08:58:57.345Z,10.30
2019-01-06T09:01:45.509Z,10.77
2019-01-06T09:04:20.482Z,10.47
2019-01-06T09:06:52.520Z,11.07
2019-01-06T09:09:30.496Z,10.70
2019-01-06T09:12:02.535Z,11.07
2019-01-06T09:14:40.496Z,12.07
2019-01-06T09:17:12.539Z,11.57
2019-01-06T09:19:53.427Z,11.20
2019-01-06T09:22:28.385Z,11.00
2019-01-06T09:25:16.748Z,10.93
2019-01-06T09:28:07.063Z,11.27
2019-01-06T09:30:55.513Z,11.17
2019-01-06T09:33:45.558Z,11.77
2019-01-06T09:36:36.036Z,10.87
2019-01-06T09:39:15.183Z,12.30
2019-01-06T09:41:53.212Z,11.73
2019-01-06T09:44:31.166Z,12.27
2019-01-06T09:47:05.935Z,12.67
2019-01-06T09:49:55.940Z,11.30
2019-01-06T09:52:36.745Z,12.03
2019-01-06T09:55:08.778Z,11.30
2019-01-06T09:57:43.254Z,11.97
2019-01-06T10:00:31.699Z,14.07
2019-01-06T10:03:12.748Z,14.03
2019-01-06T10:05:44.773Z,11.80
2019-01-06T10:08:32.928Z,13.10
2019-01-06T10:11:17.161Z,12.63
2019-01-06T10:13:51.642Z,13.93
2019-01-06T10:16:32.560Z,13.43
2019-01-06T10:19:10.513Z,13.30
2019-01-06T10:21:54.512Z,13.23
2019-01-06T10:24:38.197Z,16.03
2019-01-06T10:27:26.569Z,13.93
2019-01-06T10:30:07.638Z,13.53
2019-01-06T10:32:45.640Z,14.40
2019-01-06T10:35:23.404Z,14.37
2019-01-06T10:37:55.424Z,13.43
2019-01-06T10:40:39.366Z,14.63
2019-01-06T10:43:27.943Z,15.00
2019-01-06T10:46:17.968Z,15.97
2019-01-06T10:48:49.986Z,15.00
2019-01-06T10:51:22.101Z,14.70
2019-01-06T10:54:03.242Z,14.47
2019-01-06T10:56:38.239Z,13.90
2019-01-06T10:59:13.020Z,14.03
2019-01-06T11:02:01.174Z,13.70
2019-01-06T11:04:42.102Z,14.10
2019-01-06T11:07:17.521Z,13.47
2019-01-06T11:09:49.543Z,13.73
2019-01-06T11:12:38.009Z,13.80
2019-01-06T11:15:26.399Z,13.97
2019-01-06T11:18:13.399Z,13.47
2019-01-06T11:20:47.825Z,13.00
2019-01-06T11:23:36.073Z,12.70
2019-01-06T11:26:15.687Z,12.67
2019-01-06T11:29:03.241Z,11.93
2019-01-06T11:31:38.095Z,11.00
2019-01-06T11:34:19.244Z,11.07
2019-01-06T11:37:03.546Z,10.00
2019-01-06T11:39:51.638Z,9.90
2019-01-06T11:42:23.683Z,10.10
2019-01-06T11:45:01.542Z,11.10
2019-01-06T11:47:34.052Z,10.43
2019-01-06T11:50:12.497Z,10.00
2019-01-06T11:52:59.523Z,8.57
2019-01-06T11:55:37.604Z,9.23
2019-01-06T11:58:27.566Z,9.17
2019-01-06T12:01:15.833Z,9.30
2019-01-06T12:03:53.752Z,9.67
2019-01-06T12:06:25.786Z,8.27
2019-01-06T12:08:57.842Z,7.40
2019-01-06T12:11:45.763Z,7.03
2019-01-06T12:14:34.117Z,7.13
2019-01-06T12:17:22.619Z,6.97
2019-01-06T12:20:13.195Z,6.63
2019-01-06T12:22:54.079Z,5.90
2019-01-06T12:25:26.124Z,6.33
2019-01-06T12:28:10.267Z,5.70
2019-01-06T12:30:51.540Z,5.70
2019-01-06T12:33:26.536Z,4.87
2019-01-06T12:36:04.651Z,4.97
2019-01-06T12:38:49.073Z,4.73
2019-01-06T12:41:27.482Z,5.50
2019-01-06T12:44:06.314Z,5.40
2019-01-06T12:46:53.859Z,6.10
2019-01-06T12:49:31.642Z,6.03
2019-01-06T12:52:23.697Z,6.40
2019-01-06T12:54:56.045Z,5.97
2019-01-06T12:57:44.733Z,6.30
2019-01-06T13:00:25.697Z,6.80
2019-01-06T13:03:13.842Z,7.20
2019-01-06T13:05:51.595Z,7.30
2019-01-06T13:08:32.946Z,8.20
2019-01-06T13:11:04.973Z,8.37
2019-01-06T13:13:45.952Z,9.50
2019-01-06T13:16:23.871Z,9.63
2019-01-06T13:18:55.917Z,8.73
2019-01-06T13:21:30.616Z,8.83
2019-01-06T13:24:19.126Z,8.73
2019-01-06T13:26:56.840Z,9.00
2019-01-06T13:29:31.851Z,9.53
2019-01-06T13:32:06.942Z,8.47
2019-01-06T13:34:39.824Z,8.97
2019-01-06T13:37:11.837Z,8.43
2019-01-06T13:40:00.365Z,7.83
2019-01-06T13:42:32.458Z,8.77
2019-01-06T13:45:04.478Z,8.50
2019-01-06T13:47:45.640Z,7.80
2019-01-06T13:50:17.648Z,8.27
2019-01-06T13:53:01.772Z,8.77
2019-01-06T13:55:42.937Z,7.87
2019-01-06T13:58:21.507Z,7.73
2019-01-06T14:01:09.894Z,7.80
2019-01-06T14:03:47.885Z,7.97
2019-01-06T14:06:36.199Z,7.00
2019-01-06T14:09:27.219Z,6.90
2019-01-06T14:12:15.278Z,7.17
2019-01-06T14:14:47.282Z,6.77
2019-01-06T14:17:22.014Z,6.97
2019-01-06T14:19:57.383Z,6.80
2019-01-06T14:22:29.407Z,7.30
2019-01-06T14:25:17.499Z,7.87
2019-01-06T14:27:58.114Z,7.23
2019-01-06T14:30:32.870Z,6.77
2019-01-06T14:33:04.941Z,7.63
2019-01-06T14:35:37.324Z,8.40
2019-01-06T14:38:25.779Z,8.50
2019-01-06T14:40:57.814Z,9.23
2019-01-06T14:43:45.855Z,9.40
2019-01-06T14:46:27.010Z,9.50
2019-01-06T14:49:01.718Z,9.77
2019-01-06T14:51:34.086Z,10.70
2019-01-06T14:54:15.224Z,9.63
2019-01-06T14:57:03.292Z,9.77
2019-01-06T14:59:44.436Z,10.70
2019-01-06T15:02:19.829Z,10.73
2019-01-06T15:05:06.739Z,9.97
2019-01-06T15:07:47.550Z,10.43
2019-01-06T15:10:25.799Z,9.87
2019-01-06T15:13:00.925Z,10.03
2019-01-06T15:15:35.636Z,10.37
2019-01-06T15:18:14.104Z,10.07
2019-01-06T15:21:01.404Z,10.73
2019-01-06T15:23:33.420Z,9.97
2019-01-06T15:26:24.010Z,10.43
2019-01-06T15:29:12.443Z,10.30
2019-01-06T15:31:50.044Z,9.83
2019-01-06T15:34:25.020Z,11.07
2019-01-06T15:37:12.169Z,12.50
2019-01-06T15:39:47.118Z,10.83
2019-01-06T15:42:19.152Z,11.23
2019-01-06T15:45:06.293Z,10.80
2019-01-06T15:47:38.323Z,10.40
2019-01-06T15:50:16.269Z,10.80
2019-01-06T15:53:03.617Z,11.43
2019-01-06T15:55:52.170Z,11.27
2019-01-06T15:58:24.185Z,12.43
2019-01-06T16:01:08.387Z,12.43
2019-01-06T16:03:43.318Z,12.20
2019-01-06T16:06:31.661Z,12.50
2019-01-06T16:09:18.835Z,11.87
2019-01-06T16:12:07.057Z,13.87
2019-01-06T16:14:55.383Z,14.50
2019-01-06T16:17:43.736Z,13.17
2019-01-06T16:20:31.903Z,14.20
2019-01-06T16:23:06.378Z,14.17
2019-01-06T16:25:41.291Z,13.50
2019-01-06T16:28:22.901Z,13.67
2019-01-06T16:31:09.902Z,13.37
2019-01-06T16:33:45.062Z,14.47
2019-01-06T16:36:33.535Z,14.47
2019-01-06T16:39:23.325Z,14.97
2019-01-06T16:41:55.344Z,13.67
2019-01-06T16:44:27.388Z,14.93
2019-01-06T16:46:59.412Z,15.07
2019-01-06T16:49:47.588Z,14.33
2019-01-06T16:52:19.607Z,14.80
2019-01-06T16:55:09.363Z,13.20
2019-01-06T16:57:50.285Z,13.93
2019-01-06T17:00:38.613Z,14.27
2019-01-06T17:03:10.652Z,13.70
2019-01-06T17:05:59.141Z,14.03
2019-01-06T17:08:37.257Z,14.23
2019-01-06T17:11:12.211Z,15.53
2019-01-06T17:13:54.890Z,13.10
2019-01-06T17:16:26.957Z,13.77
2019-01-06T17:19:02.067Z,15.23
2019-01-06T17:21:50.127Z,15.17
2019-01-06T17:24:38.471Z,15.87
2019-01-06T17:27:19.500Z,15.50
2019-01-06T17:29:51.533Z,15.43
2019-01-06T17:32:26.483Z,14.53
2019-01-06T17:35:10.680Z,13.93
2019-01-06T17:37:59.171Z,15.77
2019-01-06T17:40:40.416Z,15.40
2019-01-06T17:43:12.818Z,14.17
2019-01-06T17:45:50.426Z,15.67
2019-01-06T17:48:31.851Z,16.07
2019-01-06T17:51:16.013Z,15.20
2019-01-06T17:54:04.357Z,14.20
2019-01-06T17:56:45.219Z,14.53
2019-01-06T17:59:33.102Z,15.73
2019-01-06T18:02:05.269Z,15.73
2019-01-06T18:04:37.275Z,15.87
2019-01-06T18:07:09.697Z,15.70
2019-01-06T18:09:59.850Z,15.07
2019-01-06T18:12:37.644Z,15.00
2019-01-06T18:15:11.305Z,15.43
2019-01-06T18:17:49.288Z,14.97
2019-01-06T18:20:37.469Z,15.93
2019-01-06T18:23:25.822Z,15.43
2019-01-06T18:26:03.995Z,16.00
2019-01-06T18:28:36.011Z,14.63
2019-01-06T18:31:14.234Z,15.80
2019-01-06T18:33:55.376Z,15.77
2019-01-06T18:36:30.122Z,15.20
2019-01-06T18:39:18.486Z,14.63
2019-01-06T18:41:56.430Z,15.37
2019-01-06T18:44:44.996Z,15.80
2019-01-06T18:47:29.105Z,15.93
2019-01-06T18:50:03.815Z,15.13
2019-01-06T18:52:36.381Z,16.13
2019-01-06T18:55:11.225Z,16.10
2019-01-06T18:57:55.506Z,14.63
2019-01-06T19:00:27.597Z,15.07
2019-01-06T19:03:15.825Z,15.33
2019-01-06T19:06:05.856Z,14.37
2019-01-06T19:08:49.951Z,16.00
2019-01-06T19:11:38.278Z,16.10
2019-01-06T19:14:28.573Z,15.73
2019-01-06T19:17:19.023Z,15.60
2019-01-06T19:19:53.927Z,16.33
2019-01-06T19:22:29.517Z,16.77
2019-01-06T19:25:01.644Z,16.13
2019-01-06T19:27:34.902Z,16.93
2019-01-06T19:30:24.484Z,16.87
2019-01-06T19:32:59.488Z,18.27
2019-01-06T19:35:34.807Z,17.43
2019-01-06T19:38:23.178Z,17.37
2019-01-06T19:41:11.759Z,18.17
2019-01-06T19:43:43.820Z,18.27
2019-01-06T19:46:21.566Z,16.93
2019-01-06T19:48:56.603Z,16.63
2019-01-06T19:51:31.281Z,15.27
2019-01-06T19:54:12.312Z,16.83
2019-01-06T19:56:47.557Z,15.93
2019-01-06T19:59:19.611Z,15.07
2019-01-06T20:01:54.576Z,15.43
2019-01-06T20:04:41.520Z,15.00
2019-01-06T20:07:13.756Z,15.77
2019-01-06T20:09:51.613Z,15.33
2019-01-06T20:12:39.469Z,16.03
2019-01-06T20:15:14.520Z,15.83
2019-01-06T20:17:49.506Z,15.90
2019-01-06T20:20:33.107Z,15.23
2019-01-06T20:23:17.381Z,14.90
2019-01-06T20:26:04.360Z,15.37
2019-01-06T20:28:52.791Z,15.60
2019-01-06T20:31:43.199Z,14.60
2019-01-06T20:34:27.196Z,15.83
2019-01-06T20:36:59.293Z,15.07
2019-01-06T20:39:34.296Z,15.60
2019-01-06T20:42:09.116Z,15.60
2019-01-06T20:44:47.088Z,15.87
2019-01-06T20:47:22.341Z,15.27
2019-01-06T20:50:10.930Z,15.27
2019-01-06T20:52:57.938Z,16.00
2019-01-06T20:55:46.392Z,15.63
2019-01-06T20:58:21.585Z,14.73
2019-01-06T21:01:09.734Z,15.33
2019-01-06T21:03:41.768Z,15.07
2019-01-06T21:06:29.038Z,15.27
2019-01-06T21:09:17.530Z,15.53
2019-01-06T21:11:58.686Z,16.70
2019-01-06T21:14:30.729Z,16.63
2019-01-06T21:17:08.758Z,14.73
2019-01-06T21:19:57.184Z,15.53
2019-01-06T21:22:32.613Z,15.97
2019-01-06T21:25:07.502Z,16.67
2019-01-06T21:27:56.189Z,15.23
2019-01-06T21:30:28.575Z,16.40
2019-01-06T21:33:12.857Z,14.87
2019-01-06T21:35:44.930Z,14.17
2019-01-06T21:38:19.901Z,14.70
2019-01-06T21:41:08.245Z,14.83
2019-01-06T21:43:40.279Z,15.00
2019-01-06T21:46:28.474Z,16.13
2019-01-06T21:49:00.513Z,14.80
2019-01-06T21:51:41.381Z,14.13
2019-01-06T21:54:22.385Z,14.47
2019-01-06T21:57:00.185Z,14.63
2019-01-06T21:59:47.219Z,13.27
2019-01-06T22:02:25.371Z,12.93
2019-01-06T22:05:06.199Z,12.53
2019-01-06T22:07:38.243Z,12.97
2019-01-06T22:10:26.691Z,12.10
2019-01-06T22:13:10.703Z,11.93
2019-01-06T22:15:59.113Z,12.43
2019-01-06T22:18:42.892Z,12.47
2019-01-06T22:21:14.928Z,10.90
2019-01-06T22:23:49.949Z,11.00
2019-01-06T22:26:24.723Z,11.00
2019-01-06T22:29:13.124Z,11.40
2019-01-06T22:31:54.398Z,10.23
2019-01-06T22:34:41.420Z,10.83
2019-01-06T22:37:30.286Z,9.80
2019-01-06T22:40:08.429Z,9.33
2019-01-06T22:42:55.521Z,9.03
2019-01-06T22:45:45.776Z,9.70
2019-01-06T22:48:29.594Z,9.33
2019-01-06T22:51:01.919Z,9.80
2019-01-06T22:53:46.164Z,9.20
2019-01-06T22:56:30.261Z,8.30
2019-01-06T22:59:05.225Z,8.33
2019-01-06T23:01:53.340Z,8.40
2019-01-06T23:04:31.127Z,8.47
2019-01-06T23:07:05.809Z,8.57
2019-01-06T23:09:40.828Z,9.83
2019-01-06T23:12:21.825Z,8.27
2019-01-06T23:14:56.763Z,8.73
2019-01-06T23:17:45.105Z,7.70
2019-01-06T23:20:26.503Z,7.97
2019-01-06T23:23:10.555Z,7.90
2019-01-06T23:25:58.974Z,7.80
2019-01-06T23:28:47.156Z,7.50
2019-01-06T23:31:25.033Z,7.10
2019-01-06T23:33:57.018Z,6.87
2019-01-06T23:36:29.365Z,6.57
2019-01-06T23:39:04.332Z,6.37
2019-01-06T23:41:36.338Z,6.53
2019-01-06T23:44:14.330Z,7.00
2019-01-06T23:46:49.609Z,5.53
2019-01-06T23:49:24.854Z,5.47
2019-01-06T23:52:13.365Z,5.10
2019-01-06T23:55:00.929Z,5.10
2019-01-06T23:57:33.303Z,5.63
